createdAt,value
2022-10-14T00:04:41.945Z,100.00
2022-10-14T00:09:43.692Z,100.00
2022-10-14T00:14:47.435Z,100.00
2022-10-14T00:19:49.050Z,100.00
2022-10-14T00:24:50.731Z,100.00
2022-10-14T00:29:52.483Z,100.00
2022-10-14T00:34:54.212Z,99.92
2022-10-14T00:39:57.147Z,99.92
2022-10-14T00:45:07.943Z,99.83
2022-10-14T00:50:12.875Z,99.99
2022-10-14T00:55:17.840Z,100.00
2022-10-14T01:00:21.811Z,100.00
2022-10-14T01:05:26.610Z,100.00
2022-10-14T01:10:43.560Z,100.00
2022-10-14T01:15:51.676Z,100.00
2022-10-14T01:21:05.429Z,100.00
2022-10-14T01:26:19.276Z,100.00
2022-10-14T01:31:30.142Z,100.00
2022-10-14T01:36:49.222Z,100.00
2022-10-14T01:41:57.425Z,100.00
2022-10-14T01:47:03.073Z,100.00
2022-10-14T01:52:12.620Z,100.00
2022-10-14T01:57:22.562Z,100.00
2022-10-14T02:02:25.150Z,100.00
2022-10-14T02:07:32.389Z,100.00
2022-10-14T02:12:52.409Z,100.00
2022-10-14T02:18:00.669Z,100.00
2022-10-14T02:23:10.914Z,100.00
2022-10-14T02:28:21.883Z,100.00
2022-10-14T02:33:28.788Z,100.00
2022-10-14T02:38:33.818Z,100.00
2022-10-14T02:43:35.850Z,100.00
2022-10-14T02:48:41.226Z,100.00
2022-10-14T02:53:42.923Z,100.00
2022-10-14T02:58:44.965Z,100.00
2022-10-14T03:03:47.288Z,100.00
2022-10-14T03:08:49.353Z,100.00
2022-10-14T03:13:51.295Z,100.00
2022-10-14T03:18:55.695Z,100.00
2022-10-14T03:24:12.253Z,100.00
2022-10-14T03:29:15.947Z,100.00
2022-10-14T03:34:32.578Z,100.00
2022-10-14T03:39:41.682Z,100.00
2022-10-14T03:44:44.705Z,100.00
2022-10-14T03:49:57.230Z,100.00
2022-10-14T03:55:13.616Z,100.00
2022-10-14T04:00:18.409Z,100.00
2022-10-14T04:05:25.046Z,100.00
2022-10-14T04:10:27.300Z,100.00
2022-10-14T04:15:31.083Z,100.00
2022-10-14T04:20:53.745Z,100.00
2022-10-14T04:25:57.915Z,100.00
2022-10-14T04:31:00.583Z,100.00
2022-10-14T04:36:09.415Z,100.00
2022-10-14T04:41:15.074Z,99.96
2022-10-14T04:46:22.167Z,100.00
2022-10-14T04:51:23.968Z,100.00
2022-10-14T04:56:34.555Z,100.00
2022-10-14T05:01:40.013Z,100.00
2022-10-14T05:06:42.223Z,99.81
2022-10-14T05:11:47.252Z,99.77
2022-10-14T05:16:53.530Z,100.00
2022-10-14T05:22:02.447Z,100.00
2022-10-14T05:27:11.397Z,99.17
2022-10-14T05:32:13.699Z,96.89
2022-10-14T05:37:24.064Z,96.45
2022-10-14T05:42:27.890Z,96.67
2022-10-14T05:47:32.626Z,96.04
2022-10-14T05:52:41.966Z,97.40
2022-10-14T05:57:55.764Z,98.68
2022-10-14T06:03:01.010Z,99.93
2022-10-14T06:08:02.897Z,100.00
2022-10-14T06:13:04.888Z,100.00
2022-10-14T06:18:09.362Z,100.00
2022-10-14T06:23:11.184Z,100.00
2022-10-14T06:28:12.998Z,100.00
2022-10-14T06:33:14.662Z,100.00
2022-10-14T06:38:16.446Z,100.00
2022-10-14T06:43:18.888Z,100.00
2022-10-14T06:48:20.736Z,100.00
2022-10-14T06:53:22.443Z,100.00
2022-10-14T06:58:24.324Z,100.00
2022-10-14T07:03:26.170Z,100.00
2022-10-14T07:08:27.882Z,100.00
2022-10-14T07:13:29.721Z,100.00
2022-10-14T07:18:32.186Z,100.00
2022-10-14T07:23:34.040Z,100.00
2022-10-14T07:28:35.891Z,100.00
2022-10-14T07:33:39.089Z,100.00
2022-10-14T07:38:41.697Z,100.00
2022-10-14T07:43:45.582Z,100.00
2022-10-14T07:48:56.777Z,100.00
2022-10-14T07:54:01.770Z,100.00
2022-10-14T07:59:03.902Z,100.00
2022-10-14T08:04:05.935Z,100.00
2022-10-14T08:09:09.447Z,100.00
2022-10-14T08:14:11.672Z,100.00
2022-10-14T08:19:14.896Z,100.00
2022-10-14T08:24:16.699Z,100.00
2022-10-14T08:29:18.804Z,100.00
2022-10-14T08:34:21.692Z,100.00
2022-10-14T08:39:23.564Z,100.00
2022-10-14T08:44:28.642Z,100.00
2022-10-14T08:49:45.971Z,100.00
2022-10-14T08:54:52.053Z,100.00
2022-10-14T08:59:54.518Z,100.00
2022-10-14T09:04:59.803Z,100.00
2022-10-14T09:10:11.339Z,100.00
2022-10-14T09:15:16.584Z,100.00
2022-10-14T09:20:22.108Z,100.00
2022-10-14T09:25:23.889Z,99.29
2022-10-14T09:30:25.930Z,99.74
2022-10-14T09:35:32.851Z,98.81
2022-10-14T09:40:41.471Z,96.25
2022-10-14T09:45:48.448Z,93.22
2022-10-14T09:50:53.540Z,92.70
2022-10-14T09:55:58.761Z,92.76
2022-10-14T10:01:01.890Z,93.29
2022-10-14T10:06:07.134Z,92.99
2022-10-14T10:11:13.866Z,90.83
2022-10-14T10:16:18.851Z,89.51
2022-10-14T10:21:26.340Z,89.07
2022-10-14T10:26:31.809Z,88.97
2022-10-14T10:32:15.352Z,88.19
2022-10-14T10:37:17.294Z,86.80
2022-10-14T10:42:39.384Z,85.62
2022-10-14T10:47:52.108Z,82.14
2022-10-14T10:53:09.822Z,82.17
2022-10-14T10:58:26.170Z,81.28
2022-10-14T11:03:46.508Z,81.14
2022-10-14T11:09:23.542Z,80.75
2022-10-14T11:14:48.515Z,80.17
2022-10-14T11:19:59.039Z,80.06
2022-10-14T11:25:22.745Z,77.55
2022-10-14T11:31:02.786Z,76.58
2022-10-14T11:36:15.050Z,75.98
2022-10-14T11:41:22.489Z,76.18
2022-10-14T11:46:28.913Z,76.02
2022-10-14T11:51:38.898Z,76.49
2022-10-14T11:56:54.782Z,77.30
2022-10-14T12:02:03.917Z,77.57
2022-10-14T12:07:12.653Z,76.65
2022-10-14T12:12:20.133Z,76.64
2022-10-14T12:17:32.224Z,75.85
2022-10-14T12:22:35.585Z,76.53
2022-10-14T12:27:37.797Z,75.19
2022-10-14T12:33:01.656Z,75.89
2022-10-14T12:38:03.951Z,75.16
2022-10-14T12:43:15.691Z,75.26
2022-10-14T12:48:22.174Z,75.49
2022-10-14T12:53:27.244Z,75.70
2022-10-14T12:58:35.050Z,76.00
2022-10-14T13:03:52.887Z,75.61
2022-10-14T13:09:18.365Z,75.44
2022-10-14T13:14:30.038Z,75.99
2022-10-14T13:19:34.548Z,76.24
2022-10-14T13:24:41.599Z,76.60
2022-10-14T13:30:10.689Z,76.61
2022-10-14T13:35:18.972Z,76.58
2022-10-14T13:40:37.508Z,77.40
2022-10-14T13:45:46.869Z,78.32
2022-10-14T13:50:52.189Z,79.10
2022-10-14T13:55:54.746Z,79.25
2022-10-14T14:00:57.902Z,79.20
2022-10-14T14:06:00.851Z,79.92
2022-10-14T14:11:19.498Z,80.75
2022-10-14T14:16:24.291Z,81.95
2022-10-14T14:21:28.352Z,82.36
2022-10-14T14:26:37.320Z,82.59
2022-10-14T14:32:06.076Z,84.13
2022-10-14T14:37:16.563Z,86.22
2022-10-14T14:42:26.281Z,87.35
2022-10-14T14:47:29.340Z,88.48
2022-10-14T14:52:31.417Z,88.95
2022-10-14T14:57:33.190Z,85.77
2022-10-14T15:02:35.276Z,83.03
2022-10-14T15:07:37.427Z,83.07
2022-10-14T15:12:50.474Z,83.57
2022-10-14T15:18:10.633Z,82.99
2022-10-14T15:23:37.808Z,83.12
2022-10-14T15:28:39.539Z,83.23
2022-10-14T15:33:41.688Z,83.85
2022-10-14T15:38:43.380Z,84.77
2022-10-14T15:43:45.074Z,84.45
2022-10-14T15:48:50.204Z,84.26
2022-10-14T15:53:51.940Z,84.16
2022-10-14T15:58:53.665Z,84.42
2022-10-14T16:03:55.845Z,84.42
2022-10-14T16:08:58.469Z,84.65
2022-10-14T16:14:00.152Z,85.09
2022-10-14T16:19:04.846Z,85.38
2022-10-14T16:24:07.463Z,85.52
2022-10-14T16:29:10.246Z,85.83
2022-10-14T16:34:11.866Z,86.05
2022-10-14T16:39:13.651Z,86.52
2022-10-14T16:44:25.020Z,86.65
2022-10-14T16:49:26.885Z,86.85
2022-10-14T16:54:28.653Z,87.03
2022-10-14T16:59:31.249Z,87.32
2022-10-14T17:04:32.998Z,87.23
2022-10-14T17:09:36.322Z,87.29
2022-10-14T17:14:38.132Z,87.38
2022-10-14T17:19:39.923Z,87.77
2022-10-14T17:24:41.680Z,87.89
2022-10-14T17:29:44.431Z,88.31
2022-10-14T17:34:46.229Z,88.72
2022-10-14T17:39:48.146Z,89.16
2022-10-14T17:44:49.888Z,89.28
2022-10-14T17:49:51.572Z,89.54
2022-10-14T17:54:56.395Z,89.88
2022-10-14T18:00:00.554Z,90.34
2022-10-14T18:05:03.283Z,90.35
2022-10-14T18:10:05.982Z,90.52
2022-10-14T18:15:08.102Z,90.83
2022-10-14T18:20:09.918Z,90.99
2022-10-14T18:25:11.578Z,91.50
2022-10-14T18:30:13.466Z,91.68
2022-10-14T18:35:15.147Z,92.04
2022-10-14T18:40:18.293Z,92.12
2022-10-14T18:45:20.046Z,92.07
2022-10-14T18:50:21.860Z,92.05
2022-10-14T18:55:23.725Z,92.27
2022-10-14T19:00:26.802Z,92.20
2022-10-14T19:05:32.836Z,92.22
2022-10-14T19:10:34.954Z,92.03
2022-10-14T19:15:45.403Z,92.11
2022-10-14T19:20:56.272Z,92.12
2022-10-14T19:25:59.178Z,92.06
2022-10-14T19:31:15.539Z,92.09
2022-10-14T19:36:19.582Z,91.97
2022-10-14T19:41:21.342Z,91.94
2022-10-14T19:46:27.196Z,91.94
2022-10-14T19:51:29.228Z,92.03
2022-10-14T19:56:31.141Z,91.55
2022-10-14T20:01:33.625Z,91.82
2022-10-14T20:06:35.726Z,91.85
2022-10-14T20:11:37.946Z,91.88
2022-10-14T20:16:39.796Z,91.50
2022-10-14T20:21:41.571Z,91.92
2022-10-14T20:26:43.235Z,92.10
2022-10-14T20:31:45.006Z,91.85
2022-10-14T20:36:46.685Z,91.91
2022-10-14T20:41:48.443Z,91.85
2022-10-14T20:46:50.267Z,91.88
2022-10-14T20:51:52.019Z,91.79
2022-10-14T20:56:54.480Z,91.76
2022-10-14T21:01:56.298Z,91.92
2022-10-14T21:06:58.090Z,92.29
2022-10-14T21:11:59.833Z,92.50
2022-10-14T21:17:01.515Z,93.36
2022-10-14T21:22:04.067Z,93.86
2022-10-14T21:27:05.976Z,94.71
2022-10-14T21:32:08.166Z,95.70
2022-10-14T21:37:09.978Z,95.80
2022-10-14T21:42:11.940Z,96.08
2022-10-14T21:47:13.733Z,96.99
2022-10-14T21:52:15.710Z,97.36
2022-10-14T21:57:17.587Z,97.56
2022-10-14T22:02:19.326Z,97.82
2022-10-14T22:07:21.329Z,98.12
2022-10-14T22:12:24.324Z,98.55
2022-10-14T22:17:26.305Z,98.69
2022-10-14T22:22:28.283Z,98.78
2022-10-14T22:27:30.163Z,98.55
2022-10-14T22:32:32.029Z,98.52
2022-10-14T22:37:33.710Z,98.30
2022-10-14T22:42:36.969Z,98.00
2022-10-14T22:47:40.975Z,98.30
2022-10-14T22:52:42.732Z,98.71
2022-10-14T22:57:44.427Z,99.11
2022-10-14T23:02:46.346Z,99.48
2022-10-14T23:07:48.090Z,99.50
2022-10-14T23:12:49.814Z,100.00
2022-10-14T23:17:51.744Z,100.00
2022-10-14T23:22:53.590Z,100.00
2022-10-14T23:27:55.260Z,100.00
2022-10-14T23:32:57.027Z,100.00
2022-10-14T23:37:58.657Z,99.84
2022-10-14T23:43:01.441Z,99.85
2022-10-14T23:48:03.121Z,99.91
2022-10-14T23:53:04.918Z,99.96
2022-10-14T23:58:06.620Z,100.00
